Time;durP1;ratioP1;P1;durP2;ratioP2;P2;SDS_P1;SDS_P2;PMS_P1;PMS_P2;Temp;Humidity;BMP_temperature;BMP_pressure;BME280_temperature;BME280_humidity;BME280_pressure;Samples;Min_cycle;Max_cycle;Signal;HPM_P1;HPM_P2
2022/08/22 00:01:53;;;;;;;7.30;6.40;;;;;;;18.46;76.24;100057.19;90111;1271;93482;-59
2022/08/22 00:04:17;;;;;;;9.10;7.70;;;;;;;18.43;76.17;100057.50;90088;1271;81363;-60
2022/08/22 00:06:37;;;;;;;8.80;7.20;;;;;;;18.40;76.08;100055.17;90120;1272;82692;-60
2022/08/22 00:09:01;;;;;;;8.20;7.30;;;;;;;18.41;76.20;100056.70;90120;1271;98973;-60
2022/08/22 00:11:18;;;;;;;8.60;7.30;;;;;;;18.42;76.16;100058.20;90018;1273;89030;-60
2022/08/22 00:13:35;;;;;;;7.70;6.90;;;;;;;18.43;76.10;100058.81;90081;1271;95520;-60
2022/08/22 00:15:52;;;;;;;8.90;7.80;;;;;;;18.42;76.21;100060.05;90064;1272;80589;-60
2022/08/22 00:18:10;;;;;;;7.80;7.00;;;;;;;18.41;76.25;100057.96;90093;1270;82681;-60
2022/08/22 00:20:28;;;;;;;7.40;6.70;;;;;;;18.37;76.35;100063.73;90100;1272;98007;-60
2022/08/22 00:22:47;;;;;;;7.50;6.70;;;;;;;18.33;76.36;100068.88;90093;1271;87729;-60
2022/08/22 00:25:03;;;;;;;10.60;8.30;;;;;;;18.32;76.43;100067.00;90097;1271;93970;-60
2022/08/22 00:27:18;;;;;;;8.00;7.10;;;;;;;18.32;76.45;100069.52;90078;1271;82015;-60
2022/08/22 00:29:33;;;;;;;8.90;8.00;;;;;;;18.29;76.60;100071.88;90127;1271;81217;-60
2022/08/22 00:31:46;;;;;;;9.30;7.40;;;;;;;18.33;76.39;100071.66;90102;1272;96783;-60
2022/08/22 00:34:03;;;;;;;10.00;7.70;;;;;;;18.32;76.43;100073.96;90104;1271;88016;-60
2022/08/22 00:36:25;;;;;;;7.70;7.00;;;;;;;18.30;76.48;100078.13;90114;1271;94261;-60
2022/08/22 00:38:42;;;;;;;7.80;7.00;;;;;;;18.30;76.55;100069.60;90100;1272;80891;-60
2022/08/22 00:41:02;;;;;;;8.70;7.10;;;;;;;18.28;76.48;100069.73;90110;1270;82870;-60
2022/08/22 00:43:48;;;;;;;9.30;7.90;;;;;;;18.25;76.53;100068.65;90103;1272;98714;-60
2022/08/22 00:46:23;;;;;;;8.80;8.00;;;;;;;18.21;76.68;100067.27;90028;1272;87739;-60
2022/08/22 00:48:56;;;;;;;8.50;7.60;;;;;;;18.17;76.62;100068.13;90025;1272;95024;-60
2022/08/22 00:51:38;;;;;;;9.50;7.90;;;;;;;18.14;76.65;100065.00;90008;1272;80012;-60
2022/08/22 00:53:53;;;;;;;12.80;9.00;;;;;;;18.08;76.79;100068.94;90036;1272;81407;-60
2022/08/22 00:56:27;;;;;;;9.10;8.10;;;;;;;18.05;76.86;100067.75;90039;1272;98950;-60
2022/08/22 00:59:04;;;;;;;;;;;;;;;18.04;77.01;100071.00;90038;1272;88079;-60
2022/08/22 01:01:19;;;;;;;9.00;8.20;;;;;;;18.00;77.18;100073.88;89993;1272;94904;-60
2022/08/22 01:03:57;;;;;;;10.40;8.30;;;;;;;17.99;77.20;100075.21;89984;1272;82240;-60
2022/08/22 01:06:22;;;;;;;9.00;8.10;;;;;;;18.02;77.32;100075.73;90030;1272;82621;-60
2022/08/22 01:08:58;;;;;;;9.30;8.20;;;;;;;18.06;77.47;100079.63;90036;1272;98991;-60
2022/08/22 01:11:27;;;;;;;9.10;7.60;;;;;;;18.07;77.51;100077.79;90021;1272;87118;-60
2022/08/22 01:13:55;;;;;;;10.00;7.90;;;;;;;18.08;77.55;100082.55;90044;1272;94052;-60
2022/08/22 01:16:20;;;;;;;10.50;7.70;;;;;;;18.12;77.74;100076.77;89995;1272;82251;-60
2022/08/22 01:18:56;;;;;;;11.70;8.30;;;;;;;18.21;77.81;100077.80;90040;1272;81430;-60
2022/08/22 01:22:13;;;;;;;11.20;8.30;;;;;;;18.23;77.74;100077.52;90037;1272;99769;-60
2022/08/22 01:25:18;;;;;;;11.10;8.60;;;;;;;18.28;77.84;100077.17;89894;1276;87999;-60
2022/08/22 01:28:14;;;;;;;10.60;8.90;;;;;;;18.31;77.80;100083.62;90049;1272;93852;-60
2022/08/22 01:30:53;;;;;;;10.20;8.10;;;;;;;18.31;77.92;100083.28;90015;1272;80762;-60
2022/08/22 01:33:49;;;;;;;9.40;8.40;;;;;;;18.34;77.78;100088.66;89958;1272;82339;-60
2022/08/22 01:36:47;;;;;;;9.40;8.40;;;;;;;18.37;77.65;100087.48;90055;1272;99465;-60
2022/08/22 01:39:46;;;;;;;8.70;7.90;;;;;;;18.39;77.74;100084.85;90024;1272;88187;-60
2022/08/22 01:42:38;;;;;;;13.10;8.70;;;;;;;18.42;77.52;100084.45;90002;1272;93982;-60
2022/08/22 01:45:21;;;;;;;9.20;8.30;;;;;;;18.39;77.73;100087.63;90038;1272;81444;-60
2022/08/22 01:47:38;;;;;;;9.20;8.10;;;;;;;18.40;77.58;100087.11;90118;1272;82508;-60
2022/08/22 01:49:52;;;;;;;10.10;8.60;;;;;;;18.37;77.64;100086.01;90105;1270;99498;-60
2022/08/22 01:52:09;;;;;;;10.00;8.30;;;;;;;18.37;77.63;100087.27;90122;1272;87528;-60
2022/08/22 01:54:37;;;;;;;10.60;8.50;;;;;;;18.36;77.58;100085.17;90079;1272;94509;-60
2022/08/22 01:56:48;;;;;;;11.00;8.10;;;;;;;18.36;77.58;100084.63;90037;1270;80894;-60
2022/08/22 01:59:04;;;;;;;8.30;7.50;;;;;;;18.38;77.63;100083.33;90062;1271;81671;-60
2022/08/22 02:01:33;;;;;;;10.80;8.00;;;;;;;18.34;77.46;100077.81;90088;1270;98543;-60
2022/08/22 02:03:58;;;;;;;8.70;7.80;;;;;;;18.30;77.52;100076.16;90089;1272;88026;-60
2022/08/22 02:06:13;;;;;;;11.90;8.00;;;;;;;18.25;77.55;100074.84;90094;1271;94572;-60
2022/08/22 02:08:33;;;;;;;11.20;7.80;;;;;;;18.24;77.60;100078.23;90081;1271;81924;-60
2022/08/22 02:11:05;;;;;;;8.80;7.90;;;;;;;18.22;77.71;100078.11;90100;1271;80680;-60
2022/08/22 02:13:37;;;;;;;10.40;8.30;;;;;;;18.20;77.67;100076.92;90091;1272;98559;-60
2022/08/22 02:16:00;;;;;;;11.10;8.30;;;;;;;18.21;77.64;100079.73;90113;1271;87759;-60
2022/08/22 02:18:29;;;;;;;10.20;7.90;;;;;;;18.22;77.63;100082.15;90079;1271;93134;-60
2022/08/22 02:20:54;;;;;;;9.70;7.80;;;;;;;18.20;77.68;100083.48;90080;1270;81192;-59
2022/08/22 02:23:16;;;;;;;12.20;8.20;;;;;;;18.14;77.78;100080.25;90147;1270;82805;-59
2022/08/22 02:25:28;;;;;;;13.90;8.20;;;;;;;18.13;77.79;100084.45;90146;1271;99812;-60
2022/08/22 02:27:51;;;;;;;10.80;7.80;;;;;;;18.13;77.63;100085.00;90124;1270;86759;-60
2022/08/22 02:30:11;;;;;;;10.40;8.60;;;;;;;18.10;77.70;100082.31;90108;1271;95193;-60
2022/08/22 02:32:33;;;;;;;8.50;7.40;;;;;;;18.12;77.73;100079.58;90120;1271;80804;-60
2022/08/22 02:34:52;;;;;;;8.90;8.00;;;;;;;18.11;77.77;100085.99;90024;1272;83056;-60
2022/08/22 02:37:13;;;;;;;8.80;7.90;;;;;;;18.04;77.85;100079.09;90113;1271;99900;-60
2022/08/22 02:39:35;;;;;;;9.50;7.70;;;;;;;18.02;77.79;100079.93;90122;1272;88292;-60
2022/08/22 02:41:56;;;;;;;11.00;8.30;;;;;;;17.97;77.89;100082.35;90120;1270;94528;-60
2022/08/22 02:44:17;;;;;;;11.10;7.40;;;;;;;17.93;78.00;100085.23;90120;1271;81852;-60
2022/08/22 02:46:40;;;;;;;8.40;7.60;;;;;;;17.92;78.07;100085.85;90108;1272;81083;-60
2022/08/22 02:49:04;;;;;;;11.50;8.40;;;;;;;17.93;78.10;100083.15;90140;1271;97824;-60
2022/08/22 02:51:26;;;;;;;9.30;7.60;;;;;;;17.95;78.16;100083.45;90114;1271;88840;-60
2022/08/22 02:53:45;;;;;;;9.10;7.60;;;;;;;17.97;78.28;100085.47;90098;1270;93673;-60
2022/08/22 02:56:02;;;;;;;9.40;8.40;;;;;;;17.98;78.39;100085.21;90102;1272;80926;-60
2022/08/22 02:58:20;;;;;;;8.60;7.60;;;;;;;17.97;78.52;100087.76;90122;1271;81233;-60
2022/08/22 03:00:42;;;;;;;8.10;7.00;;;;;;;17.99;78.65;100086.61;90130;1270;99061;-60
2022/08/22 03:03:19;;;;;;;10.20;8.00;;;;;;;18.05;78.72;100085.13;90146;1271;86367;-60
2022/08/22 03:05:41;;;;;;;8.10;7.20;;;;;;;18.06;78.92;100091.70;90114;1271;94028;-60
2022/08/22 03:08:02;;;;;;;9.60;7.50;;;;;;;18.11;78.88;100092.33;90079;1270;82236;-60
2022/08/22 03:10:23;;;;;;;8.50;7.50;;;;;;;18.13;78.98;100095.45;90148;1271;81746;-60
2022/08/22 03:12:40;;;;;;;9.00;8.10;;;;;;;18.15;78.93;100100.46;90121;1271;98225;-60
2022/08/22 03:15:01;;;;;;;8.70;7.50;;;;;;;18.14;79.05;100099.30;90115;1270;86445;-60
2022/08/22 03:17:17;;;;;;;10.80;8.40;;;;;;;18.16;79.20;100108.29;90095;1271;95066;-60
2022/08/22 03:19:47;;;;;;;10.50;8.00;;;;;;;18.22;79.27;100106.21;90079;1271;82233;-60
2022/08/22 03:22:07;;;;;;;9.90;8.40;;;;;;;18.31;79.17;100106.27;90121;1271;82329;-60
2022/08/22 03:24:21;;;;;;;14.40;8.30;;;;;;;18.39;79.16;100105.25;90104;1271;99760;-60
2022/08/22 03:26:42;;;;;;;11.20;8.50;;;;;;;18.45;79.12;100105.09;90134;1271;88280;-60
2022/08/22 03:28:56;;;;;;;14.10;8.70;;;;;;;18.46;79.09;100101.82;90103;1271;93715;-60
2022/08/22 03:31:17;;;;;;;18.30;9.00;;;;;;;18.49;79.18;100103.11;90086;1271;81099;-60
2022/08/22 03:33:29;;;;;;;14.70;8.70;;;;;;;18.54;79.15;100104.21;90119;1271;82542;-60
2022/08/22 03:35:57;;;;;;;13.00;8.40;;;;;;;18.57;78.97;100105.38;90107;1270;97576;-60
2022/08/22 03:38:28;;;;;;;14.60;9.10;;;;;;;18.61;78.95;100111.84;90127;1271;87498;-60
2022/08/22 03:40:53;;;;;;;18.50;9.40;;;;;;;18.65;78.90;100115.30;90081;1272;93856;-60
2022/08/22 03:43:31;;;;;;;20.90;9.10;;;;;;;18.69;78.93;100114.27;90109;1272;81323;-60
2022/08/22 03:46:18;;;;;;;20.30;9.90;;;;;;;18.73;78.86;100109.14;90126;1270;81754;-60
2022/08/22 03:49:01;;;;;;;27.30;10.60;;;;;;;18.76;78.90;100107.27;89823;1271;372774;-60
2022/08/22 03:51:39;;;;;;;37.20;11.30;;;;;;;18.83;78.75;100111.98;90122;1271;86655;-60
2022/08/22 03:54:29;;;;;;;36.80;12.50;;;;;;;18.80;78.86;100112.52;90096;1272;93950;-60
2022/08/22 03:57:21;;;;;;;31.70;11.60;;;;;;;18.86;78.66;100110.87;90091;1272;81761;-60
2022/08/22 04:00:01;;;;;;;23.20;10.90;;;;;;;18.92;78.68;100104.61;89957;1270;81364;-60
2022/08/22 04:02:42;;;;;;;19.50;9.30;;;;;;;18.90;78.65;100105.52;90099;1271;99710;-60
2022/08/22 04:05:34;;;;;;;14.90;8.60;;;;;;;18.95;78.82;100108.10;90081;1270;88930;-60
2022/08/22 04:08:18;;;;;;;9.60;7.70;;;;;;;19.03;78.53;100111.90;90082;1271;95434;-60
2022/08/22 04:11:21;;;;;;;10.70;7.80;;;;;;;19.09;78.34;100116.70;90097;1271;81428;-61
2022/08/22 04:14:23;;;;;;;10.60;7.90;;;;;;;19.20;78.37;100118.98;89921;1270;82622;-60
2022/08/22 04:17:28;;;;;;;16.70;8.70;;;;;;;19.30;78.36;100119.89;89783;1277;99834;-60
2022/08/22 04:20:11;;;;;;;28.80;10.70;;;;;;;19.43;78.06;100126.08;90115;1270;88361;-60
2022/08/22 04:23:04;;;;;;;44.30;12.60;;;;;;;19.53;78.01;100133.88;90092;1272;94318;-60
2022/08/22 04:25:22;;;;;;;37.70;13.60;;;;;;;19.69;77.74;100140.39;90016;1271;82017;-60
2022/08/22 04:27:39;;;;;;;27.80;10.50;;;;;;;19.74;77.50;100144.46;90093;1270;81266;-60
2022/08/22 04:29:55;;;;;;;14.00;9.40;;;;;;;19.77;77.42;100149.44;90111;1271;99883;-60
2022/08/22 04:32:13;;;;;;;10.00;8.00;;;;;;;19.85;77.23;100149.58;90118;1271;87622;-60
2022/08/22 04:34:30;;;;;;;16.40;8.40;;;;;;;19.96;77.04;100144.44;90081;1271;95434;-60
2022/08/22 04:36:47;;;;;;;14.40;9.20;;;;;;;20.08;76.81;100147.23;90073;1270;79212;-60
2022/08/22 04:39:03;;;;;;;30.40;9.40;;;;;;;20.31;76.83;100141.51;90133;1270;80832;-60
2022/08/22 04:41:17;;;;;;;43.00;12.00;;;;;;;21.10;76.84;100139.06;90105;1270;98387;-60
2022/08/22 04:43:34;;;;;;;32.90;10.20;;;;;;;22.16;75.90;100130.19;90097;1271;89228;-60
2022/08/22 04:45:50;;;;;;;32.60;9.60;;;;;;;22.90;74.47;100130.35;90088;1271;95408;-61
2022/08/22 04:48:06;;;;;;;46.30;13.80;;;;;;;23.72;73.36;100137.09;90080;1271;80341;-60
2022/08/22 04:50:22;;;;;;;56.70;14.10;;;;;;;24.44;72.17;100143.52;90125;1270;82254;-60
2022/08/22 04:52:47;;;;;;;40.70;12.60;;;;;;;24.96;70.60;100146.89;90109;1271;98955;-60
2022/08/22 04:55:10;;;;;;;35.50;10.10;;;;;;;25.27;68.71;100149.59;90125;1270;87889;-60
2022/08/22 04:57:36;;;;;;;31.80;11.60;;;;;;;25.75;67.68;100146.36;90082;1271;93742;-60
2022/08/22 04:59:46;;;;;;;35.00;11.80;;;;;;;26.45;66.35;100146.27;90102;1271;80557;-61
2022/08/22 05:02:04;;;;;;;38.90;11.80;;;;;;;26.72;65.29;100149.55;90135;1272;83093;-61
2022/08/22 05:04:18;;;;;;;23.20;11.00;;;;;;;26.18;64.20;100144.42;90112;1271;99647;-60
2022/08/22 05:06:31;;;;;;;31.10;10.60;;;;;;;25.46;63.94;100148.23;90137;1271;87517;-61
2022/08/22 05:08:43;;;;;;;24.10;10.90;;;;;;;24.89;64.14;100150.30;90101;1271;94278;-61
2022/08/22 05:10:53;;;;;;;25.90;10.40;;;;;;;24.33;64.47;100153.36;90112;1271;79120;-61
2022/08/22 05:13:07;;;;;;;28.30;11.70;;;;;;;23.86;65.05;100151.09;90131;1270;82755;-61
2022/08/22 05:15:23;;;;;;;24.90;14.20;;;;;;;23.65;65.32;100150.58;90114;1271;99147;-61
2022/08/22 05:17:34;;;;;;;42.40;13.90;;;;;;;23.49;65.37;100153.88;90098;1271;88492;-58
2022/08/22 05:19:49;;;;;;;34.00;14.90;;;;;;;23.16;65.54;100151.44;90091;1270;92899;-60
2022/08/22 05:21:59;;;;;;;32.10;12.90;;;;;;;23.08;65.84;100155.73;90080;1271;80042;-60
2022/08/22 05:24:14;;;;;;;31.60;12.40;;;;;;;23.06;66.14;100153.59;90103;1271;80551;-60
2022/08/22 05:26:23;;;;;;;42.90;13.50;;;;;;;23.23;66.15;100157.70;90025;1273;98244;-60
2022/08/22 05:28:38;;;;;;;28.90;12.20;;;;;;;23.23;66.16;100158.76;90132;1270;87406;-60
2022/08/22 05:30:50;;;;;;;36.90;12.20;;;;;;;24.04;66.13;100157.52;90073;1271;94470;-60
2022/08/22 05:33:12;;;;;;;45.40;14.00;;;;;;;25.33;64.98;100159.31;90076;1270;80667;-60
2022/08/22 05:35:32;;;;;;;45.80;12.70;;;;;;;26.55;63.72;100159.73;90108;1270;81958;-61
2022/08/22 05:37:47;;;;;;;51.50;14.20;;;;;;;27.29;62.40;100160.09;90107;1270;98327;-60
2022/08/22 05:40:00;;;;;;;15.60;8.30;;;;;;;27.80;61.85;100161.16;90110;1271;87926;-60
2022/08/22 05:42:17;;;;;;;17.20;9.10;;;;;;;28.58;61.16;100163.09;90100;1270;94544;-60
2022/08/22 05:44:30;;;;;;;18.90;8.90;;;;;;;29.57;59.90;100163.05;90086;1271;79820;-61
2022/08/22 05:46:45;;;;;;;49.50;13.10;;;;;;;30.62;58.27;100162.09;90116;1271;82634;-60
2022/08/22 05:49:01;;;;;;;34.00;10.50;;;;;;;31.02;57.34;100163.65;90117;1271;99117;-60
2022/08/22 05:51:24;;;;;;;14.30;7.70;;;;;;;31.58;56.22;100164.04;90113;1271;88843;-59
2022/08/22 05:53:38;;;;;;;13.10;7.80;;;;;;;31.91;54.78;100163.60;90104;1270;95120;-60
2022/08/22 05:55:57;;;;;;;12.00;7.20;;;;;;;32.21;54.27;100160.52;90082;1272;79889;-60
2022/08/22 05:58:27;;;;;;;23.60;8.80;;;;;;;32.63;52.49;100161.09;90114;1270;81470;-60
2022/08/22 06:00:41;;;;;;;24.90;10.00;;;;;;;32.85;51.28;100160.73;90112;1270;98845;-60
2022/08/22 06:03:08;;;;;;;22.40;8.10;;;;;;;33.19;50.48;100156.36;90127;1270;86858;-59
2022/08/22 06:05:21;;;;;;;21.00;8.00;;;;;;;33.75;49.43;100152.85;90104;1271;93978;-60
2022/08/22 06:07:41;;;;;;;20.30;7.80;;;;;;;34.08;48.46;100153.00;90088;1271;79787;-59
2022/08/22 06:10:20;;;;;;;16.20;7.10;;;;;;;34.22;48.46;100149.43;90026;1272;83211;-59
2022/08/22 06:12:36;;;;;;;13.00;6.70;;;;;;;34.76;46.82;100145.03;90047;1270;98864;-59
2022/08/22 06:14:52;;;;;;;12.90;7.40;;;;;;;34.90;45.59;100141.52;90128;1270;88180;-59
2022/08/22 06:17:09;;;;;;;9.90;6.40;;;;;;;34.84;45.27;100144.30;90094;1270;94379;-60
2022/08/22 06:19:20;;;;;;;12.10;6.70;;;;;;;35.07;45.42;100146.25;90078;1271;80682;-60
2022/08/22 06:21:36;;;;;;;15.30;7.20;;;;;;;35.41;44.78;100148.23;90123;1271;82068;-60
2022/08/22 06:23:50;;;;;;;26.20;8.60;;;;;;;36.01;43.67;100145.61;90122;1270;98880;-60
2022/08/22 06:26:02;;;;;;;12.90;6.60;;;;;;;36.41;42.39;100144.39;90147;1270;87987;-60
2022/08/22 06:28:17;;;;;;;14.80;7.50;;;;;;;36.32;42.26;100143.86;90104;1271;95014;-60
2022/08/22 06:30:28;;;;;;;15.60;6.60;;;;;;;36.41;41.99;100144.72;90106;1270;79963;-60
2022/08/22 06:32:44;;;;;;;20.60;7.30;;;;;;;36.66;41.44;100145.68;90122;1270;82787;-60
2022/08/22 06:34:56;;;;;;;15.70;6.60;;;;;;;36.95;40.74;100147.20;90107;1270;98267;-60
2022/08/22 06:37:12;;;;;;;22.80;6.80;;;;;;;36.84;40.42;100148.16;90105;1271;88180;-60
2022/08/22 06:39:26;;;;;;;13.00;5.90;;;;;;;36.50;40.02;100143.32;90095;1270;93665;-60
2022/08/22 06:41:41;;;;;;;27.00;7.40;;;;;;;36.46;39.06;100145.58;90092;1270;78955;-60
2022/08/22 06:43:52;;;;;;;29.10;9.20;;;;;;;36.29;39.22;100150.63;90118;1271;82820;-60
2022/08/22 06:46:02;;;;;;;15.80;7.10;;;;;;;36.63;37.66;100154.23;90135;1271;99284;-60
2022/08/22 06:48:22;;;;;;;25.50;7.20;;;;;;;37.06;36.51;100157.06;90125;1270;89068;-60
2022/08/22 06:50:36;;;;;;;20.00;6.40;;;;;;;37.13;36.95;100164.14;90080;1270;94298;-60
2022/08/22 06:52:58;;;;;;;12.20;6.20;;;;;;;37.08;36.68;100167.59;90106;1270;79734;-60
2022/08/22 06:55:11;;;;;;;7.40;5.10;;;;;;;36.66;36.87;100170.23;90142;1271;81768;-60
2022/08/22 06:57:34;;;;;;;11.60;6.20;;;;;;;36.20;36.81;100172.34;90119;1271;99639;-60
2022/08/22 06:59:44;;;;;;;8.50;5.90;;;;;;;35.27;37.64;100167.98;90125;1270;88091;-59
2022/08/22 07:01:58;;;;;;;10.40;5.90;;;;;;;34.63;38.17;100168.67;90107;1271;95589;-60
2022/08/22 07:04:10;;;;;;;8.10;5.50;;;;;;;34.28;38.36;100173.51;90095;1270;79478;-60
2022/08/22 07:06:24;;;;;;;10.20;5.70;;;;;;;33.46;38.99;100171.67;90155;1270;81801;-60
2022/08/22 07:08:35;;;;;;;8.80;6.00;;;;;;;32.66;40.30;100174.88;90121;1270;98912;-60
2022/08/22 07:10:49;;;;;;;14.60;6.00;;;;;;;32.34;40.63;100173.36;90126;1271;88879;-59
2022/08/22 07:12:58;;;;;;;11.40;5.60;;;;;;;32.69;41.26;100174.55;90086;1272;94283;-59
2022/08/22 07:15:22;;;;;;;10.90;6.00;;;;;;;33.52;40.77;100173.45;90086;1270;79241;-60
2022/08/22 07:17:33;;;;;;;11.10;6.30;;;;;;;34.12;40.09;100167.21;90154;1271;82440;-60
2022/08/22 07:19:55;;;;;;;9.90;5.70;;;;;;;34.88;39.76;100162.52;90129;1271;99799;-60
2022/08/22 07:22:16;;;;;;;18.40;6.50;;;;;;;35.99;38.86;100163.17;90140;1270;87631;-60
2022/08/22 07:24:29;;;;;;;11.80;5.60;;;;;;;36.02;38.10;100164.52;90083;1270;94699;-60
2022/08/22 07:26:50;;;;;;;8.90;5.50;;;;;;;36.03;37.60;100166.58;90077;1271;80780;-60
2022/08/22 07:29:04;;;;;;;16.60;6.30;;;;;;;36.31;37.52;100169.89;90129;1270;82322;-60
2022/08/22 07:31:24;;;;;;;9.90;5.40;;;;;;;36.33;37.09;100173.33;90121;1270;98716;-60
2022/08/22 07:33:49;;;;;;;9.80;5.60;;;;;;;36.23;36.86;100173.57;90129;1270;88156;-60
2022/08/22 07:36:02;;;;;;;9.60;6.00;;;;;;;36.39;36.87;100173.11;90106;1270;94473;-60
2022/08/22 07:38:24;;;;;;;11.80;6.30;;;;;;;36.26;36.15;100171.11;90089;1270;79734;-60
2022/08/22 07:40:42;;;;;;;10.80;5.60;;;;;;;35.30;36.98;100176.42;90112;1270;82268;-60
2022/08/22 07:42:59;;;;;;;7.80;5.70;;;;;;;35.20;37.16;100173.10;90107;1270;99602;-60
2022/08/22 07:45:15;;;;;;;11.60;5.70;;;;;;;35.30;37.08;100175.31;90129;1271;87827;-60
2022/08/22 07:47:32;;;;;;;10.20;5.90;;;;;;;35.35;37.03;100176.65;90092;1271;95619;-60
2022/08/22 07:50:01;;;;;;;12.20;5.70;;;;;;;35.34;36.76;100181.43;90098;1272;79251;-60
2022/08/22 07:52:13;;;;;;;11.50;6.00;;;;;;;35.50;37.50;100186.70;90107;1270;81857;-60
2022/08/22 07:54:31;;;;;;;9.00;6.00;;;;;;;36.32;36.57;100183.09;90092;1270;98727;-60
2022/08/22 07:56:45;;;;;;;8.50;6.00;;;;;;;36.83;36.35;100189.02;90120;1272;87994;-60
2022/08/22 07:59:10;;;;;;;10.00;5.90;;;;;;;37.13;36.02;100195.70;90106;1271;95050;-60
2022/08/22 08:01:24;;;;;;;8.20;5.90;;;;;;;36.97;35.52;100196.71;90099;1271;79176;-60
2022/08/22 08:03:33;;;;;;;10.60;6.20;;;;;;;36.93;35.97;100192.85;90119;1272;81088;-60
2022/08/22 08:05:44;;;;;;;13.10;6.50;;;;;;;36.85;35.34;100188.00;90135;1270;99400;-60
2022/08/22 08:07:56;;;;;;;18.00;6.70;;;;;;;36.60;35.61;100188.19;90125;1271;88660;-60
2022/08/22 08:10:13;;;;;;;16.10;6.30;;;;;;;36.53;36.22;100188.19;90107;1270;95140;-60
2022/08/22 08:12:33;;;;;;;12.20;5.80;;;;;;;36.85;36.29;100187.52;90090;1272;79389;-60
2022/08/22 08:14:44;;;;;;;12.40;6.20;;;;;;;37.11;35.72;100183.42;90155;1270;80576;-60
2022/08/22 08:17:00;;;;;;;15.10;6.90;;;;;;;37.24;35.57;100181.66;90144;1270;98900;-60
2022/08/22 08:19:12;;;;;;;13.00;6.10;;;;;;;37.61;35.41;100186.48;90128;1271;88419;-60
2022/08/22 08:21:32;;;;;;;11.20;6.30;;;;;;;37.24;34.59;100185.46;90090;1272;94384;-60
2022/08/22 08:23:48;;;;;;;12.60;5.70;;;;;;;37.23;35.39;100187.13;90096;1270;80033;-60
2022/08/22 08:26:07;;;;;;;10.40;5.80;;;;;;;37.40;34.50;100188.59;90121;1270;81755;-60
2022/08/22 08:28:34;;;;;;;13.40;6.10;;;;;;;36.89;34.46;100185.52;90032;1272;98713;-60
2022/08/22 08:30:56;;;;;;;8.70;5.80;;;;;;;36.70;34.34;100182.86;90114;1270;88684;-60
2022/08/22 08:33:05;;;;;;;;;;;;;;;36.82;34.93;100184.14;90111;1271;94301;-60
2022/08/22 08:35:25;;;;;;;14.50;6.50;;;;;;;36.59;35.39;100186.08;90073;1271;78970;-61
2022/08/22 08:37:43;;;;;;;12.00;6.90;;;;;;;37.01;35.33;100184.42;90120;1270;81543;-61
2022/08/22 08:39:57;;;;;;;12.50;5.90;;;;;;;37.22;34.97;100182.82;90112;1270;99939;-60
2022/08/22 08:45:40;;;;;;;13.60;5.60;;;;;;;37.57;34.03;100187.70;90098;1270;94286;-61
2022/08/22 08:48:19;;;;;;;19.10;7.80;;;;;;;37.03;34.61;100185.42;90077;1271;80585;-60
2022/08/22 08:50:49;;;;;;;14.50;5.40;;;;;;;36.40;34.57;100183.53;90128;1270;82033;-59
2022/08/22 08:53:25;;;;;;;18.00;6.10;;;;;;;35.85;34.99;100179.43;90109;1271;99153;-59
2022/08/22 08:55:55;;;;;;;15.10;6.60;;;;;;;35.70;35.48;100180.10;90114;1270;88687;-59
2022/08/22 08:58:25;;;;;;;11.30;5.50;;;;;;;36.16;35.16;100182.55;90092;1270;94479;-59
2022/08/22 09:00:56;;;;;;;21.80;6.60;;;;;;;35.82;35.08;100180.41;90092;1271;79049;-59
2022/08/22 09:03:15;;;;;;;19.70;7.40;;;;;;;34.95;35.43;100181.60;90120;1271;81298;-59
2022/08/22 09:06:02;;;;;;;12.60;5.90;;;;;;;34.29;35.99;100186.19;90108;1272;99160;-59
2022/08/22 09:09:08;;;;;;;26.20;8.20;;;;;;;33.39;37.01;100188.08;90121;1270;88099;-59
2022/08/22 09:12:07;;;;;;;14.10;6.40;;;;;;;33.18;37.32;100189.31;89833;1276;94427;-59
2022/08/22 09:14:39;;;;;;;13.40;5.60;;;;;;;32.37;37.81;100185.45;89825;1276;79081;-61
2022/08/22 09:17:25;;;;;;;15.90;6.70;;;;;;;31.82;38.84;100180.30;90060;1271;82985;-61
2022/08/22 09:20:19;;;;;;;17.00;6.60;;;;;;;31.80;39.55;100182.15;90094;1271;98257;-61
2022/08/22 09:23:24;;;;;;;18.40;6.60;;;;;;;31.47;40.13;100179.14;90107;1272;87720;-60
2022/08/22 09:25:37;;;;;;;14.20;5.80;;;;;;;31.41;40.90;100184.11;89991;1272;94666;-60
2022/08/22 09:27:53;;;;;;;9.90;5.30;;;;;;;31.55;40.53;100179.95;90000;1273;78985;-60
2022/08/22 09:30:13;;;;;;;13.00;5.80;;;;;;;31.84;40.60;100179.20;90091;1272;83139;-61
2022/08/22 09:32:36;;;;;;;15.00;7.00;;;;;;;32.30;40.64;100178.63;90109;1270;97947;-61
2022/08/22 09:35:04;;;;;;;15.90;6.40;;;;;;;32.40;40.23;100177.04;90116;1272;88487;-61
2022/08/22 09:37:25;;;;;;;31.50;8.80;;;;;;;32.61;40.98;100172.92;90093;1272;95317;-61
2022/08/22 09:39:48;;;;;;;15.30;6.00;;;;;;;32.53;40.32;100174.83;90091;1271;79077;-61
2022/08/22 09:42:07;;;;;;;35.40;9.70;;;;;;;32.15;40.33;100177.69;90116;1270;81270;-61
2022/08/22 09:44:30;;;;;;;15.20;6.00;;;;;;;31.80;40.63;100171.73;90097;1272;100372;-61
2022/08/22 09:46:53;;;;;;;20.40;6.90;;;;;;;31.84;41.38;100167.09;90103;1272;88822;-61
2022/08/22 09:49:13;;;;;;;26.70;7.00;;;;;;;31.95;41.15;100168.98;90109;1270;95170;-61
2022/08/22 09:51:37;;;;;;;21.70;6.50;;;;;;;31.82;41.17;100169.37;90076;1271;78506;-61
2022/08/22 09:54:15;;;;;;;10.60;4.80;;;;;;;31.83;41.32;100165.27;90121;1272;80564;-61
2022/08/22 09:56:39;;;;;;;5.90;4.40;;;;;;;31.73;41.05;100165.23;90120;1271;98358;-61
2022/08/22 09:59:00;;;;;;;9.30;5.10;;;;;;;31.81;41.14;100164.31;90103;1271;87410;-60
2022/08/22 10:01:25;;;;;;;8.20;5.00;;;;;;;31.50;40.95;100161.95;90084;1271;95866;-60
2022/08/22 10:04:07;;;;;;;11.00;4.80;;;;;;;31.26;41.21;100163.36;89998;1273;80817;-60
2022/08/22 10:06:21;;;;;;;13.90;6.10;;;;;;;31.33;41.49;100162.77;90099;1271;82308;-60
2022/08/22 10:08:44;;;;;;;19.90;7.30;;;;;;;31.39;41.36;100161.67;90139;1270;98677;-60
2022/08/22 10:11:18;;;;;;;23.90;6.50;;;;;;;31.43;41.19;100160.52;90096;1271;88690;-60
2022/08/22 10:13:42;;;;;;;14.00;5.20;;;;;;;31.18;41.50;100164.52;90094;1271;94730;-61
2022/08/22 10:16:02;;;;;;;9.80;4.50;;;;;;;30.88;42.12;100161.23;90099;1271;78996;-60
2022/08/22 10:18:24;;;;;;;6.70;4.20;;;;;;;30.50;42.44;100162.41;90122;1271;83061;-60
2022/08/22 10:20:46;;;;;;;12.30;4.90;;;;;;;30.29;42.50;100164.33;90093;1271;98993;-60
2022/08/22 10:23:07;;;;;;;8.10;4.10;;;;;;;30.23;42.27;100162.00;90112;1271;87967;-60
2022/08/22 10:25:35;;;;;;;7.90;4.60;;;;;;;30.20;42.22;100167.17;90088;1271;94760;-60
2022/08/22 10:28:07;;;;;;;14.70;5.70;;;;;;;30.02;42.73;100168.99;90115;1271;80819;-61
2022/08/22 10:30:20;;;;;;;16.10;5.80;;;;;;;29.90;43.00;100171.41;90127;1271;82913;-60
2022/08/22 10:32:33;;;;;;;;;;;;;;;29.71;43.42;100172.92;90125;1270;98918;-60
2022/08/22 10:34:47;;;;;;;62.10;12.00;;;;;;;29.66;43.67;100172.80;90110;1271;87878;-60
2022/08/22 10:37:08;;;;;;;25.70;6.20;;;;;;;29.56;43.48;100176.53;90078;1271;94308;-61
2022/08/22 10:39:22;;;;;;;23.90;7.60;;;;;;;29.35;43.69;100175.65;90109;1271;80772;-61
2022/08/22 10:41:39;;;;;;;20.50;6.80;;;;;;;29.25;44.11;100174.84;90145;1270;81718;-61
2022/08/22 10:43:52;;;;;;;17.60;5.90;;;;;;;29.13;44.37;100179.27;90108;1270;100189;-60
2022/08/22 10:46:12;;;;;;;11.10;4.80;;;;;;;29.01;44.48;100175.18;90122;1271;89202;-60
2022/08/22 10:48:32;;;;;;;13.50;4.90;;;;;;;28.81;44.85;100175.00;90095;1271;94844;-60
2022/08/22 10:50:46;;;;;;;14.90;5.40;;;;;;;28.76;45.20;100175.98;90079;1270;79470;-61
2022/08/22 10:55:27;;;;;;;7.00;4.40;;;;;;;28.50;45.26;100172.50;90095;1272;99673;-59
2022/08/22 10:57:55;;;;;;;9.50;5.00;;;;;;;28.48;45.66;100174.67;90119;1270;89011;-60
2022/08/22 11:00:16;;;;;;;15.40;6.10;;;;;;;28.34;46.29;100175.91;90087;1272;94410;-59
2022/08/22 11:02:46;;;;;;;15.60;5.40;;;;;;;28.34;46.20;100170.19;90093;1270;79053;-59
2022/08/22 11:05:35;;;;;;;14.50;5.60;;;;;;;28.28;46.26;100169.17;90118;1272;82763;-59
2022/08/22 11:07:55;;;;;;;14.20;5.10;;;;;;;28.10;46.70;100173.73;90007;1272;100166;-59